Weather Data

Pearl Creek Farm: 8878 N Farm Road 75, Walnut Grove MO 65770

<== Previous Day (Saturday 02 Aug 2008) | Next Day (Monday 04 Aug 2008) ==>

Summary Precipitation Data For Sunday 03 August 2008

ElementValueUnits
Precipitation0"
Notes(none)
SourceSpringfield-Branson National Airport (SGF)

Summary Temperature Data For Sunday 03 August 2008

ElementValueUnits
High Temperature96 oF
Low Temperature76 oF
Average Temperature86 oF
High Humidity91 %
Low Humidity41 %
Average Humidity68 %
SourceSpringfield-Branson National Airport (SGF)

Detail Temperature Data For Sunday 03 August 2008

Date / TimeTemp (F)RH (%)Dew Pt (F)Report Date / TimeSource
2008-08-03 05:52:00 78 90 75.0 2017-12-29 19:14:24.89625 Springfield-Branson National Airport (SGF)
2008-08-03 06:52:00 80 90 77.0 2017-12-29 19:14:24.89625 Springfield-Branson National Airport (SGF)
2008-08-03 00:52:00 77 90 74.0 2017-12-29 19:14:24.89625 Springfield-Branson National Airport (SGF)
2008-08-03 01:52:00 76 91 73.0 2017-12-29 19:14:24.89625 Springfield-Branson National Airport (SGF)
2008-08-03 02:52:00 77 88 73.0 2017-12-29 19:14:24.89625 Springfield-Branson National Airport (SGF)
2008-08-03 03:52:00 76 91 73.0 2017-12-29 19:14:24.89625 Springfield-Branson National Airport (SGF)
2008-08-03 04:52:00 78 90 75.0 2017-12-29 19:14:24.89625 Springfield-Branson National Airport (SGF)
2008-08-03 07:52:00 83 79 76.0 2017-12-29 19:14:24.89625 Springfield-Branson National Airport (SGF)
2008-08-03 08:52:00 87 70 76.0 2017-12-29 19:14:24.89625 Springfield-Branson National Airport (SGF)
2008-08-03 09:52:00 90 56 72.0 2017-12-29 19:14:24.89625 Springfield-Branson National Airport (SGF)
2008-08-03 10:52:00 93 49 71.0 2017-12-29 19:14:24.89625 Springfield-Branson National Airport (SGF)
2008-08-03 11:52:00 94 43 68.0 2017-12-29 19:14:24.89625 Springfield-Branson National Airport (SGF)
2008-08-03 12:52:00 96 41 69.0 2017-12-29 19:14:24.89625 Springfield-Branson National Airport (SGF)
2008-08-03 13:52:00 96 46 72.0 2017-12-29 19:14:24.89625 Springfield-Branson National Airport (SGF)
2008-08-03 14:52:00 96 44 71.0 2017-12-29 19:14:24.89625 Springfield-Branson National Airport (SGF)
2008-08-03 15:52:00 96 44 71.0 2017-12-29 19:14:24.89625 Springfield-Branson National Airport (SGF)
2008-08-03 16:52:00 94 48 71.0 2017-12-29 19:14:24.89625 Springfield-Branson National Airport (SGF)
2008-08-03 17:52:00 92 51 71.0 2017-12-29 19:14:24.89625 Springfield-Branson National Airport (SGF)
2008-08-03 18:52:00 87 61 72.0 2017-12-29 19:14:24.89625 Springfield-Branson National Airport (SGF)
2008-08-03 19:52:00 84 65 71.0 2017-12-29 19:14:24.89625 Springfield-Branson National Airport (SGF)
2008-08-03 20:52:00 82 72 72.0 2017-12-29 19:14:24.89625 Springfield-Branson National Airport (SGF)
2008-08-03 21:52:00 82 74 73.0 2017-12-29 19:14:24.89625 Springfield-Branson National Airport (SGF)
2008-08-03 22:52:00 82 74 73.0 2017-12-29 19:14:24.89625 Springfield-Branson National Airport (SGF)
2008-08-03 23:52:00 80 82 74.0 2017-12-29 19:14:24.89625 Springfield-Branson National Airport (SGF)

A total of 24 rows are displayed.